Terminal Aerodrome Forecast
Issued by NWS Sterling, VA

Home | Current Version | Previous Version | Text Only | Print | Product List | Glossary On
Versions: 1 2 3 4 5 6 7 8 9 10 11 12 13 14 15 16 17 18 19 20
000
FTUS41 KLWX 300800 AAA
TAFIAD
TAF AMD
KIAD 300846Z 3009/3112 14004KT P6SM BKN050
     FM301600 16007KT P6SM BKN050
     FM302300 15008KT P6SM SCT250
     FM310600 17006KT 5SM BR BKN250=

USA.gov is the U.S. government's official web portal to all federal, state and local government web resources and services.